Terminal Aerodrome Forecast
Issued by NWS

Home | Current Version | Previous Version | Text Only | Print | Product List | Glossary On
Versions: 1 2 3 4 5 6 7 8 9 10 11 12 13 14 15 16 17 18 19 20 21 22 23 24 25 26 27 28 29 30 31
000
FTAK31 PANC 281743
TAFACV
TAF
PACV 281743Z 2818/2918 00000KT P6SM SCT080 BKN150
     FM290000 10008G15KT P6SM BKN035 OVC050 WS020/12040KT
     FM290900 10012G20KT P6SM OVC025 WS020/11050KT=

USA.gov is the U.S. government's official web portal to all federal, state and local government web resources and services.